sensor_id;sensor_type;location;lat;lon;timestamp;P1;durP1;ratioP1;P2;durP2;ratioP2
13592;SDS011;6867;50.998;4.250;2023-09-12T00:00:08;14.95;;;9.23;;
13592;SDS011;6867;50.998;4.250;2023-09-12T00:02:36;10.38;;;8.80;;
13592;SDS011;6867;50.998;4.250;2023-09-12T00:05:03;16.20;;;10.50;;
13592;SDS011;6867;50.998;4.250;2023-09-12T00:07:30;12.65;;;9.55;;
13592;SDS011;6867;50.998;4.250;2023-09-12T00:09:57;16.83;;;10.77;;
13592;SDS011;6867;50.998;4.250;2023-09-12T00:12:23;13.27;;;9.43;;
13592;SDS011;6867;50.998;4.250;2023-09-12T00:14:50;13.73;;;9.93;;
13592;SDS011;6867;50.998;4.250;2023-09-12T00:17:19;13.88;;;10.45;;
13592;SDS011;6867;50.998;4.250;2023-09-12T00:19:46;13.95;;;9.43;;
13592;SDS011;6867;50.998;4.250;2023-09-12T00:22:12;15.63;;;10.50;;
13592;SDS011;6867;50.998;4.250;2023-09-12T00:24:39;17.08;;;11.48;;
13592;SDS011;6867;50.998;4.250;2023-09-12T00:27:05;19.45;;;12.48;;
13592;SDS011;6867;50.998;4.250;2023-09-12T00:29:32;23.65;;;15.18;;
13592;SDS011;6867;50.998;4.250;2023-09-12T00:31:59;20.85;;;13.50;;
13592;SDS011;6867;50.998;4.250;2023-09-12T00:34:27;36.53;;;23.25;;
13592;SDS011;6867;50.998;4.250;2023-09-12T00:36:54;42.65;;;24.13;;
13592;SDS011;6867;50.998;4.250;2023-09-12T00:39:20;40.55;;;25.42;;
13592;SDS011;6867;50.998;4.250;2023-09-12T00:41:47;39.70;;;24.48;;
13592;SDS011;6867;50.998;4.250;2023-09-12T00:44:14;39.88;;;23.90;;
13592;SDS011;6867;50.998;4.250;2023-09-12T00:46:40;38.20;;;23.15;;
13592;SDS011;6867;50.998;4.250;2023-09-12T00:49:09;36.75;;;23.25;;
13592;SDS011;6867;50.998;4.250;2023-09-12T00:51:39;36.85;;;22.13;;
13592;SDS011;6867;50.998;4.250;2023-09-12T00:54:07;33.67;;;22.08;;
13592;SDS011;6867;50.998;4.250;2023-09-12T00:56:34;34.25;;;20.88;;
13592;SDS011;6867;50.998;4.250;2023-09-12T00:59:01;27.55;;;17.63;;
13592;SDS011;6867;50.998;4.250;2023-09-12T01:01:28;23.88;;;16.70;;
13592;SDS011;6867;50.998;4.250;2023-09-12T01:03:55;30.48;;;18.83;;
13592;SDS011;6867;50.998;4.250;2023-09-12T01:06:23;34.17;;;21.55;;
13592;SDS011;6867;50.998;4.250;2023-09-12T01:08:53;35.63;;;22.35;;
13592;SDS011;6867;50.998;4.250;2023-09-12T01:11:20;33.50;;;21.23;;
13592;SDS011;6867;50.998;4.250;2023-09-12T01:13:47;42.72;;;24.15;;
13592;SDS011;6867;50.998;4.250;2023-09-12T01:16:13;39.70;;;25.70;;
13592;SDS011;6867;50.998;4.250;2023-09-12T01:18:40;40.10;;;23.77;;
13592;SDS011;6867;50.998;4.250;2023-09-12T01:21:17;45.17;;;27.10;;
13592;SDS011;6867;50.998;4.250;2023-09-12T01:24:11;41.30;;;25.85;;
13592;SDS011;6867;50.998;4.250;2023-09-12T01:26:59;41.33;;;26.08;;
13592;SDS011;6867;50.998;4.250;2023-09-12T01:29:40;44.83;;;27.65;;
13592;SDS011;6867;50.998;4.250;2023-09-12T01:32:09;37.38;;;25.00;;
13592;SDS011;6867;50.998;4.250;2023-09-12T01:34:37;43.03;;;26.77;;
13592;SDS011;6867;50.998;4.250;2023-09-12T01:37:03;44.78;;;27.73;;
13592;SDS011;6867;50.998;4.250;2023-09-12T01:39:30;39.67;;;25.77;;
13592;SDS011;6867;50.998;4.250;2023-09-12T01:41:57;48.05;;;27.55;;
13592;SDS011;6867;50.998;4.250;2023-09-12T01:44:27;42.47;;;25.48;;
13592;SDS011;6867;50.998;4.250;2023-09-12T01:46:55;42.65;;;25.85;;
13592;SDS011;6867;50.998;4.250;2023-09-12T01:49:27;41.17;;;24.02;;
13592;SDS011;6867;50.998;4.250;2023-09-12T01:51:55;37.00;;;23.40;;
13592;SDS011;6867;50.998;4.250;2023-09-12T01:54:24;39.05;;;24.20;;
13592;SDS011;6867;50.998;4.250;2023-09-12T01:56:52;41.20;;;25.88;;
13592;SDS011;6867;50.998;4.250;2023-09-12T01:59:22;38.55;;;24.08;;
13592;SDS011;6867;50.998;4.250;2023-09-12T02:01:50;38.22;;;24.40;;
13592;SDS011;6867;50.998;4.250;2023-09-12T02:04:17;44.85;;;26.63;;
13592;SDS011;6867;50.998;4.250;2023-09-12T02:06:44;37.72;;;23.23;;
13592;SDS011;6867;50.998;4.250;2023-09-12T02:09:10;34.97;;;23.80;;
13592;SDS011;6867;50.998;4.250;2023-09-12T02:11:37;35.17;;;22.60;;
13592;SDS011;6867;50.998;4.250;2023-09-12T02:14:04;39.00;;;23.45;;
13592;SDS011;6867;50.998;4.250;2023-09-12T02:16:30;41.97;;;25.38;;
13592;SDS011;6867;50.998;4.250;2023-09-12T02:18:58;40.80;;;24.40;;
13592;SDS011;6867;50.998;4.250;2023-09-12T02:21:25;38.03;;;24.45;;
13592;SDS011;6867;50.998;4.250;2023-09-12T02:23:52;42.47;;;24.27;;
13592;SDS011;6867;50.998;4.250;2023-09-12T02:26:18;41.58;;;25.08;;
13592;SDS011;6867;50.998;4.250;2023-09-12T02:28:45;39.80;;;22.70;;
13592;SDS011;6867;50.998;4.250;2023-09-12T02:31:12;42.00;;;24.65;;
13592;SDS011;6867;50.998;4.250;2023-09-12T02:33:39;35.13;;;21.98;;
13592;SDS011;6867;50.998;4.250;2023-09-12T02:36:07;44.50;;;26.48;;
13592;SDS011;6867;50.998;4.250;2023-09-12T02:38:34;42.03;;;25.27;;
13592;SDS011;6867;50.998;4.250;2023-09-12T02:41:00;41.13;;;23.42;;
13592;SDS011;6867;50.998;4.250;2023-09-12T02:43:28;39.17;;;24.45;;
13592;SDS011;6867;50.998;4.250;2023-09-12T02:45:55;41.55;;;22.90;;
13592;SDS011;6867;50.998;4.250;2023-09-12T02:48:22;43.42;;;25.08;;
13592;SDS011;6867;50.998;4.250;2023-09-12T02:50:49;37.22;;;22.25;;
13592;SDS011;6867;50.998;4.250;2023-09-12T02:53:17;38.75;;;24.00;;
13592;SDS011;6867;50.998;4.250;2023-09-12T02:55:44;36.65;;;21.95;;
13592;SDS011;6867;50.998;4.250;2023-09-12T02:58:10;37.45;;;23.52;;
13592;SDS011;6867;50.998;4.250;2023-09-12T03:00:37;39.63;;;23.08;;
13592;SDS011;6867;50.998;4.250;2023-09-12T03:03:05;44.20;;;24.52;;
13592;SDS011;6867;50.998;4.250;2023-09-12T03:05:34;36.33;;;23.23;;
13592;SDS011;6867;50.998;4.250;2023-09-12T03:08:00;40.08;;;23.58;;
13592;SDS011;6867;50.998;4.250;2023-09-12T03:10:29;44.22;;;25.15;;
13592;SDS011;6867;50.998;4.250;2023-09-12T03:12:55;38.53;;;22.90;;
13592;SDS011;6867;50.998;4.250;2023-09-12T03:15:22;40.88;;;24.65;;
13592;SDS011;6867;50.998;4.250;2023-09-12T03:17:49;39.78;;;24.17;;
13592;SDS011;6867;50.998;4.250;2023-09-12T03:20:16;36.05;;;23.55;;
13592;SDS011;6867;50.998;4.250;2023-09-12T03:22:42;34.30;;;21.55;;
13592;SDS011;6867;50.998;4.250;2023-09-12T03:25:10;37.17;;;21.50;;
13592;SDS011;6867;50.998;4.250;2023-09-12T03:27:38;38.10;;;24.38;;
13592;SDS011;6867;50.998;4.250;2023-09-12T03:30:05;41.75;;;25.23;;
13592;SDS011;6867;50.998;4.250;2023-09-12T03:32:33;47.53;;;26.02;;
13592;SDS011;6867;50.998;4.250;2023-09-12T03:34:59;45.15;;;24.77;;
13592;SDS011;6867;50.998;4.250;2023-09-12T03:37:26;41.83;;;23.85;;
13592;SDS011;6867;50.998;4.250;2023-09-12T03:39:53;38.55;;;22.50;;
13592;SDS011;6867;50.998;4.250;2023-09-12T03:42:20;37.40;;;23.92;;
13592;SDS011;6867;50.998;4.250;2023-09-12T03:44:48;41.85;;;25.23;;
13592;SDS011;6867;50.998;4.250;2023-09-12T03:47:15;46.38;;;26.23;;
13592;SDS011;6867;50.998;4.250;2023-09-12T03:49:41;41.28;;;25.38;;
13592;SDS011;6867;50.998;4.250;2023-09-12T03:52:08;41.35;;;23.40;;
13592;SDS011;6867;50.998;4.250;2023-09-12T03:54:34;44.85;;;26.10;;
13592;SDS011;6867;50.998;4.250;2023-09-12T03:57:01;38.28;;;23.55;;
13592;SDS011;6867;50.998;4.250;2023-09-12T03:59:28;44.08;;;25.92;;
13592;SDS011;6867;50.998;4.250;2023-09-12T04:01:56;35.85;;;22.95;;
13592;SDS011;6867;50.998;4.250;2023-09-12T04:04:23;40.67;;;23.23;;
13592;SDS011;6867;50.998;4.250;2023-09-12T04:06:49;42.38;;;24.27;;
13592;SDS011;6867;50.998;4.250;2023-09-12T04:09:16;45.97;;;25.38;;
13592;SDS011;6867;50.998;4.250;2023-09-12T04:11:43;37.15;;;23.38;;
13592;SDS011;6867;50.998;4.250;2023-09-12T04:14:09;41.75;;;24.35;;
13592;SDS011;6867;50.998;4.250;2023-09-12T04:16:36;40.10;;;24.15;;
13592;SDS011;6867;50.998;4.250;2023-09-12T04:19:04;40.90;;;24.83;;
13592;SDS011;6867;50.998;4.250;2023-09-12T04:21:31;42.20;;;25.40;;
13592;SDS011;6867;50.998;4.250;2023-09-12T04:23:57;43.45;;;24.80;;
13592;SDS011;6867;50.998;4.250;2023-09-12T04:26:24;45.03;;;25.52;;
13592;SDS011;6867;50.998;4.250;2023-09-12T04:28:51;44.95;;;24.60;;
13592;SDS011;6867;50.998;4.250;2023-09-12T04:31:17;43.75;;;25.25;;
13592;SDS011;6867;50.998;4.250;2023-09-12T04:33:44;41.15;;;23.95;;
13592;SDS011;6867;50.998;4.250;2023-09-12T04:36:12;36.20;;;22.75;;
13592;SDS011;6867;50.998;4.250;2023-09-12T04:38:39;41.75;;;22.92;;
13592;SDS011;6867;50.998;4.250;2023-09-12T04:41:05;46.45;;;23.80;;
13592;SDS011;6867;50.998;4.250;2023-09-12T04:43:32;40.28;;;22.38;;
13592;SDS011;6867;50.998;4.250;2023-09-12T04:45:59;37.75;;;24.20;;
13592;SDS011;6867;50.998;4.250;2023-09-12T04:48:26;37.67;;;22.52;;
13592;SDS011;6867;50.998;4.250;2023-09-12T04:50:53;42.15;;;24.48;;
13592;SDS011;6867;50.998;4.250;2023-09-12T04:53:21;44.33;;;23.48;;
13592;SDS011;6867;50.998;4.250;2023-09-12T04:55:47;43.30;;;22.63;;
13592;SDS011;6867;50.998;4.250;2023-09-12T04:58:14;28.95;;;19.75;;
13592;SDS011;6867;50.998;4.250;2023-09-12T05:00:41;27.20;;;18.23;;
13592;SDS011;6867;50.998;4.250;2023-09-12T05:03:07;36.50;;;21.92;;
13592;SDS011;6867;50.998;4.250;2023-09-12T05:05:34;38.08;;;22.13;;
13592;SDS011;6867;50.998;4.250;2023-09-12T05:08:02;37.53;;;21.17;;
13592;SDS011;6867;50.998;4.250;2023-09-12T05:10:31;34.35;;;21.80;;
13592;SDS011;6867;50.998;4.250;2023-09-12T05:12:57;38.30;;;22.33;;
13592;SDS011;6867;50.998;4.250;2023-09-12T05:15:24;38.03;;;21.33;;
13592;SDS011;6867;50.998;4.250;2023-09-12T05:17:51;40.95;;;23.13;;
13592;SDS011;6867;50.998;4.250;2023-09-12T05:20:17;34.08;;;20.80;;
13592;SDS011;6867;50.998;4.250;2023-09-12T05:22:44;36.67;;;21.63;;
13592;SDS011;6867;50.998;4.250;2023-09-12T05:25:10;40.00;;;21.63;;
13592;SDS011;6867;50.998;4.250;2023-09-12T05:27:38;33.85;;;19.52;;
13592;SDS011;6867;50.998;4.250;2023-09-12T05:30:05;32.92;;;19.48;;
13592;SDS011;6867;50.998;4.250;2023-09-12T05:32:33;33.20;;;18.50;;
13592;SDS011;6867;50.998;4.250;2023-09-12T05:35:01;38.60;;;21.23;;
13592;SDS011;6867;50.998;4.250;2023-09-12T05:37:28;32.33;;;20.73;;
13592;SDS011;6867;50.998;4.250;2023-09-12T05:39:55;34.63;;;21.77;;
13592;SDS011;6867;50.998;4.250;2023-09-12T05:42:21;34.83;;;20.50;;
13592;SDS011;6867;50.998;4.250;2023-09-12T05:44:49;36.88;;;21.25;;
13592;SDS011;6867;50.998;4.250;2023-09-12T05:47:18;28.42;;;17.83;;
13592;SDS011;6867;50.998;4.250;2023-09-12T05:49:45;32.38;;;19.33;;
13592;SDS011;6867;50.998;4.250;2023-09-12T05:52:11;27.42;;;18.02;;
13592;SDS011;6867;50.998;4.250;2023-09-12T05:54:39;34.22;;;19.85;;
13592;SDS011;6867;50.998;4.250;2023-09-12T05:57:07;34.17;;;20.00;;
13592;SDS011;6867;50.998;4.250;2023-09-12T05:59:35;34.22;;;20.75;;
13592;SDS011;6867;50.998;4.250;2023-09-12T06:02:04;37.70;;;21.70;;
13592;SDS011;6867;50.998;4.250;2023-09-12T06:04:33;36.60;;;19.92;;
13592;SDS011;6867;50.998;4.250;2023-09-12T06:07:00;33.90;;;19.73;;
13592;SDS011;6867;50.998;4.250;2023-09-12T06:09:27;37.03;;;22.40;;
13592;SDS011;6867;50.998;4.250;2023-09-12T06:11:54;34.03;;;18.52;;
13592;SDS011;6867;50.998;4.250;2023-09-12T06:14:21;26.80;;;18.15;;
13592;SDS011;6867;50.998;4.250;2023-09-12T06:16:47;29.17;;;16.90;;
13592;SDS011;6867;50.998;4.250;2023-09-12T06:19:15;27.70;;;18.45;;
13592;SDS011;6867;50.998;4.250;2023-09-12T06:21:44;33.75;;;20.60;;
13592;SDS011;6867;50.998;4.250;2023-09-12T06:24:12;32.90;;;19.67;;
13592;SDS011;6867;50.998;4.250;2023-09-12T06:26:39;32.35;;;19.00;;
13592;SDS011;6867;50.998;4.250;2023-09-12T06:29:06;37.80;;;21.90;;
13592;SDS011;6867;50.998;4.250;2023-09-12T06:31:33;42.42;;;22.88;;
13592;SDS011;6867;50.998;4.250;2023-09-12T06:34:00;39.35;;;22.83;;
13592;SDS011;6867;50.998;4.250;2023-09-12T06:36:29;39.03;;;22.63;;
13592;SDS011;6867;50.998;4.250;2023-09-12T06:38:55;33.92;;;19.77;;
13592;SDS011;6867;50.998;4.250;2023-09-12T06:41:22;27.55;;;18.38;;
13592;SDS011;6867;50.998;4.250;2023-09-12T06:43:49;33.80;;;20.75;;
13592;SDS011;6867;50.998;4.250;2023-09-12T06:46:16;36.70;;;22.58;;
13592;SDS011;6867;50.998;4.250;2023-09-12T06:48:43;33.30;;;21.52;;
13592;SDS011;6867;50.998;4.250;2023-09-12T06:51:10;32.63;;;20.85;;
13592;SDS011;6867;50.998;4.250;2023-09-12T06:53:38;32.95;;;20.52;;
13592;SDS011;6867;50.998;4.250;2023-09-12T06:56:05;37.67;;;22.65;;
13592;SDS011;6867;50.998;4.250;2023-09-12T06:58:32;38.65;;;22.02;;
13592;SDS011;6867;50.998;4.250;2023-09-12T07:01:01;33.92;;;21.83;;
13592;SDS011;6867;50.998;4.250;2023-09-12T07:03:29;43.85;;;23.23;;
13592;SDS011;6867;50.998;4.250;2023-09-12T07:05:55;48.88;;;27.85;;
13592;SDS011;6867;50.998;4.250;2023-09-12T07:08:22;49.63;;;28.40;;
13592;SDS011;6867;50.998;4.250;2023-09-12T07:10:50;46.72;;;27.63;;
13592;SDS011;6867;50.998;4.250;2023-09-12T07:13:19;60.10;;;30.15;;
13592;SDS011;6867;50.998;4.250;2023-09-12T07:15:46;56.72;;;29.20;;
13592;SDS011;6867;50.998;4.250;2023-09-12T07:18:13;44.22;;;25.88;;
13592;SDS011;6867;50.998;4.250;2023-09-12T07:20:41;52.58;;;27.67;;
13592;SDS011;6867;50.998;4.250;2023-09-12T07:23:07;61.05;;;32.15;;
13592;SDS011;6867;50.998;4.250;2023-09-12T07:25:37;54.03;;;30.35;;
13592;SDS011;6867;50.998;4.250;2023-09-12T07:28:06;60.60;;;31.50;;
13592;SDS011;6867;50.998;4.250;2023-09-12T07:30:33;56.60;;;29.92;;
13592;SDS011;6867;50.998;4.250;2023-09-12T07:33:00;57.50;;;30.27;;
13592;SDS011;6867;50.998;4.250;2023-09-12T07:35:26;60.13;;;31.55;;
13592;SDS011;6867;50.998;4.250;2023-09-12T07:37:53;57.53;;;31.55;;
13592;SDS011;6867;50.998;4.250;2023-09-12T07:40:20;62.45;;;32.17;;
13592;SDS011;6867;50.998;4.250;2023-09-12T07:42:46;57.47;;;30.15;;
13592;SDS011;6867;50.998;4.250;2023-09-12T07:45:14;56.55;;;29.30;;
13592;SDS011;6867;50.998;4.250;2023-09-12T07:47:41;51.65;;;29.58;;
13592;SDS011;6867;50.998;4.250;2023-09-12T07:50:08;53.55;;;30.75;;
13592;SDS011;6867;50.998;4.250;2023-09-12T07:52:35;53.17;;;29.63;;
13592;SDS011;6867;50.998;4.250;2023-09-12T07:55:02;45.00;;;25.55;;
13592;SDS011;6867;50.998;4.250;2023-09-12T07:57:29;47.15;;;29.00;;
13592;SDS011;6867;50.998;4.250;2023-09-12T07:59:56;48.88;;;27.88;;
13592;SDS011;6867;50.998;4.250;2023-09-12T08:02:24;53.75;;;30.50;;
13592;SDS011;6867;50.998;4.250;2023-09-12T08:04:50;56.33;;;30.75;;
13592;SDS011;6867;50.998;4.250;2023-09-12T08:07:18;55.97;;;32.25;;
13592;SDS011;6867;50.998;4.250;2023-09-12T08:09:49;52.78;;;30.55;;
13592;SDS011;6867;50.998;4.250;2023-09-12T08:12:17;52.20;;;29.20;;
13592;SDS011;6867;50.998;4.250;2023-09-12T08:14:45;63.28;;;34.85;;
13592;SDS011;6867;50.998;4.250;2023-09-12T08:17:11;62.63;;;33.50;;
13592;SDS011;6867;50.998;4.250;2023-09-12T08:19:40;64.82;;;34.97;;
13592;SDS011;6867;50.998;4.250;2023-09-12T08:22:07;66.88;;;34.90;;
13592;SDS011;6867;50.998;4.250;2023-09-12T08:24:35;66.85;;;32.55;;
13592;SDS011;6867;50.998;4.250;2023-09-12T08:27:02;56.70;;;32.47;;
13592;SDS011;6867;50.998;4.250;2023-09-12T08:29:29;61.88;;;34.17;;
13592;SDS011;6867;50.998;4.250;2023-09-12T08:31:57;65.35;;;32.67;;
13592;SDS011;6867;50.998;4.250;2023-09-12T08:34:24;59.67;;;32.85;;
13592;SDS011;6867;50.998;4.250;2023-09-12T08:36:52;62.33;;;33.58;;
13592;SDS011;6867;50.998;4.250;2023-09-12T08:39:22;64.22;;;35.05;;
13592;SDS011;6867;50.998;4.250;2023-09-12T08:41:50;54.35;;;33.33;;
13592;SDS011;6867;50.998;4.250;2023-09-12T08:44:18;60.05;;;31.02;;
13592;SDS011;6867;50.998;4.250;2023-09-12T08:46:45;58.50;;;32.28;;
13592;SDS011;6867;50.998;4.250;2023-09-12T08:49:12;68.53;;;34.72;;
13592;SDS011;6867;50.998;4.250;2023-09-12T08:51:39;62.25;;;33.17;;
13592;SDS011;6867;50.998;4.250;2023-09-12T08:54:07;55.97;;;32.35;;
13592;SDS011;6867;50.998;4.250;2023-09-12T08:56:36;51.33;;;31.17;;
13592;SDS011;6867;50.998;4.250;2023-09-12T08:59:05;59.00;;;32.67;;
13592;SDS011;6867;50.998;4.250;2023-09-12T09:01:33;51.55;;;29.65;;
13592;SDS011;6867;50.998;4.250;2023-09-12T09:04:01;53.85;;;30.05;;
13592;SDS011;6867;50.998;4.250;2023-09-12T09:06:30;51.97;;;31.10;;
13592;SDS011;6867;50.998;4.250;2023-09-12T09:08:58;50.13;;;28.77;;
13592;SDS011;6867;50.998;4.250;2023-09-12T09:11:27;47.03;;;25.58;;
13592;SDS011;6867;50.998;4.250;2023-09-12T09:13:54;44.38;;;25.98;;
13592;SDS011;6867;50.998;4.250;2023-09-12T09:16:21;47.88;;;27.35;;
13592;SDS011;6867;50.998;4.250;2023-09-12T09:18:53;48.30;;;27.77;;
13592;SDS011;6867;50.998;4.250;2023-09-12T09:21:21;47.55;;;28.60;;
13592;SDS011;6867;50.998;4.250;2023-09-12T09:23:49;52.33;;;28.42;;
13592;SDS011;6867;50.998;4.250;2023-09-12T09:26:16;41.60;;;25.27;;
13592;SDS011;6867;50.998;4.250;2023-09-12T09:28:44;45.67;;;26.02;;
13592;SDS011;6867;50.998;4.250;2023-09-12T09:31:12;44.10;;;27.20;;
13592;SDS011;6867;50.998;4.250;2023-09-12T09:33:39;41.33;;;24.40;;
13592;SDS011;6867;50.998;4.250;2023-09-12T09:36:10;41.00;;;24.48;;
13592;SDS011;6867;50.998;4.250;2023-09-12T09:38:37;45.17;;;25.42;;
13592;SDS011;6867;50.998;4.250;2023-09-12T09:41:04;43.42;;;25.00;;
13592;SDS011;6867;50.998;4.250;2023-09-12T09:43:32;44.53;;;24.45;;
13592;SDS011;6867;50.998;4.250;2023-09-12T09:46:00;34.95;;;21.83;;
13592;SDS011;6867;50.998;4.250;2023-09-12T09:48:28;40.22;;;21.98;;
13592;SDS011;6867;50.998;4.250;2023-09-12T09:50:59;35.50;;;21.27;;
13592;SDS011;6867;50.998;4.250;2023-09-12T09:53:27;34.70;;;20.05;;
13592;SDS011;6867;50.998;4.250;2023-09-12T09:56:07;35.42;;;21.33;;
13592;SDS011;6867;50.998;4.250;2023-09-12T09:58:34;37.13;;;20.10;;
13592;SDS011;6867;50.998;4.250;2023-09-12T10:01:02;33.92;;;20.80;;
13592;SDS011;6867;50.998;4.250;2023-09-12T10:03:33;31.45;;;19.48;;
13592;SDS011;6867;50.998;4.250;2023-09-12T10:06:02;32.42;;;20.77;;
13592;SDS011;6867;50.998;4.250;2023-09-12T10:08:32;32.40;;;20.48;;
13592;SDS011;6867;50.998;4.250;2023-09-12T10:11:00;31.67;;;19.08;;
13592;SDS011;6867;50.998;4.250;2023-09-12T10:13:28;27.70;;;17.25;;
13592;SDS011;6867;50.998;4.250;2023-09-12T10:15:58;27.33;;;16.40;;
13592;SDS011;6867;50.998;4.250;2023-09-12T10:18:28;25.83;;;16.45;;
13592;SDS011;6867;50.998;4.250;2023-09-12T10:21:04;26.48;;;16.48;;
13592;SDS011;6867;50.998;4.250;2023-09-12T10:23:34;26.67;;;16.35;;
13592;SDS011;6867;50.998;4.250;2023-09-12T10:26:07;27.70;;;16.52;;
13592;SDS011;6867;50.998;4.250;2023-09-12T10:28:36;25.10;;;15.60;;
13592;SDS011;6867;50.998;4.250;2023-09-12T10:31:06;22.25;;;13.45;;
13592;SDS011;6867;50.998;4.250;2023-09-12T10:33:36;20.52;;;12.75;;
13592;SDS011;6867;50.998;4.250;2023-09-12T10:36:03;22.83;;;13.65;;
13592;SDS011;6867;50.998;4.250;2023-09-12T10:38:32;21.95;;;13.55;;
13592;SDS011;6867;50.998;4.250;2023-09-12T10:41:02;19.30;;;11.73;;
13592;SDS011;6867;50.998;4.250;2023-09-12T10:43:31;22.98;;;13.20;;
13592;SDS011;6867;50.998;4.250;2023-09-12T10:46:00;17.85;;;11.77;;
13592;SDS011;6867;50.998;4.250;2023-09-12T10:48:28;14.98;;;9.63;;
13592;SDS011;6867;50.998;4.250;2023-09-12T10:50:57;14.32;;;8.73;;
13592;SDS011;6867;50.998;4.250;2023-09-12T10:53:25;15.93;;;9.98;;
13592;SDS011;6867;50.998;4.250;2023-09-12T10:55:59;13.45;;;9.00;;
13592;SDS011;6867;50.998;4.250;2023-09-12T11:01:40;18.02;;;10.82;;
13592;SDS011;6867;50.998;4.250;2023-09-12T11:10:16;13.82;;;8.73;;
13592;SDS011;6867;50.998;4.250;2023-09-12T11:12:44;15.65;;;9.73;;
13592;SDS011;6867;50.998;4.250;2023-09-12T11:15:12;14.52;;;8.52;;
13592;SDS011;6867;50.998;4.250;2023-09-12T11:17:40;10.98;;;8.60;;
13592;SDS011;6867;50.998;4.250;2023-09-12T11:20:07;14.82;;;8.88;;
13592;SDS011;6867;50.998;4.250;2023-09-12T11:22:37;13.77;;;9.05;;
13592;SDS011;6867;50.998;4.250;2023-09-12T11:25:06;10.50;;;7.28;;
13592;SDS011;6867;50.998;4.250;2023-09-12T11:27:44;11.60;;;7.60;;
13592;SDS011;6867;50.998;4.250;2023-09-12T11:30:12;10.48;;;7.70;;
13592;SDS011;6867;50.998;4.250;2023-09-12T11:32:39;13.57;;;8.25;;
13592;SDS011;6867;50.998;4.250;2023-09-12T11:35:06;14.95;;;9.15;;
13592;SDS011;6867;50.998;4.250;2023-09-12T11:37:33;14.40;;;9.27;;
13592;SDS011;6867;50.998;4.250;2023-09-12T11:40:04;12.75;;;8.27;;
13592;SDS011;6867;50.998;4.250;2023-09-12T11:42:42;15.52;;;8.68;;
13592;SDS011;6867;50.998;4.250;2023-09-12T11:45:09;12.10;;;8.45;;
13592;SDS011;6867;50.998;4.250;2023-09-12T11:47:39;11.93;;;8.40;;
13592;SDS011;6867;50.998;4.250;2023-09-12T11:50:06;15.70;;;11.75;;
13592;SDS011;6867;50.998;4.250;2023-09-12T11:52:35;14.60;;;10.50;;
13592;SDS011;6867;50.998;4.250;2023-09-12T11:55:04;13.60;;;10.65;;
13592;SDS011;6867;50.998;4.250;2023-09-12T11:57:32;14.30;;;10.00;;
13592;SDS011;6867;50.998;4.250;2023-09-12T11:59:59;15.00;;;9.02;;
13592;SDS011;6867;50.998;4.250;2023-09-12T12:02:33;12.05;;;9.05;;
13592;SDS011;6867;50.998;4.250;2023-09-12T12:05:00;12.13;;;7.78;;
13592;SDS011;6867;50.998;4.250;2023-09-12T12:07:29;12.48;;;8.40;;
13592;SDS011;6867;50.998;4.250;2023-09-12T12:09:56;12.02;;;9.05;;
13592;SDS011;6867;50.998;4.250;2023-09-12T12:12:24;11.82;;;9.27;;
13592;SDS011;6867;50.998;4.250;2023-09-12T12:14:50;12.90;;;8.85;;
13592;SDS011;6867;50.998;4.250;2023-09-12T12:17:17;12.40;;;8.88;;
13592;SDS011;6867;50.998;4.250;2023-09-12T12:19:45;15.18;;;8.55;;
13592;SDS011;6867;50.998;4.250;2023-09-12T12:22:12;12.00;;;8.45;;
13592;SDS011;6867;50.998;4.250;2023-09-12T12:24:39;13.35;;;8.90;;
13592;SDS011;6867;50.998;4.250;2023-09-12T12:27:07;13.55;;;9.27;;
13592;SDS011;6867;50.998;4.250;2023-09-12T12:29:37;14.13;;;9.20;;
13592;SDS011;6867;50.998;4.250;2023-09-12T12:32:05;11.43;;;8.15;;
13592;SDS011;6867;50.998;4.250;2023-09-12T12:34:34;12.90;;;8.80;;
13592;SDS011;6867;50.998;4.250;2023-09-12T12:37:00;14.43;;;9.35;;
13592;SDS011;6867;50.998;4.250;2023-09-12T12:39:27;10.77;;;7.78;;
13592;SDS011;6867;50.998;4.250;2023-09-12T12:41:54;10.80;;;7.18;;
13592;SDS011;6867;50.998;4.250;2023-09-12T12:44:21;12.32;;;8.43;;
13592;SDS011;6867;50.998;4.250;2023-09-12T12:46:49;11.95;;;7.32;;
13592;SDS011;6867;50.998;4.250;2023-09-12T12:49:17;12.20;;;7.72;;
13592;SDS011;6867;50.998;4.250;2023-09-12T12:51:44;12.35;;;8.45;;
13592;SDS011;6867;50.998;4.250;2023-09-12T12:54:12;11.05;;;6.97;;
13592;SDS011;6867;50.998;4.250;2023-09-12T12:56:40;8.90;;;6.93;;
13592;SDS011;6867;50.998;4.250;2023-09-12T12:59:10;9.65;;;6.88;;
13592;SDS011;6867;50.998;4.250;2023-09-12T13:01:37;9.63;;;7.07;;
13592;SDS011;6867;50.998;4.250;2023-09-12T13:04:06;10.43;;;7.13;;
13592;SDS011;6867;50.998;4.250;2023-09-12T13:06:34;10.35;;;7.55;;
13592;SDS011;6867;50.998;4.250;2023-09-12T13:09:02;13.15;;;7.50;;
13592;SDS011;6867;50.998;4.250;2023-09-12T13:11:30;9.13;;;7.45;;
13592;SDS011;6867;50.998;4.250;2023-09-12T13:13:58;10.23;;;6.93;;
13592;SDS011;6867;50.998;4.250;2023-09-12T13:16:25;9.77;;;7.05;;
13592;SDS011;6867;50.998;4.250;2023-09-12T13:18:52;10.00;;;7.30;;
13592;SDS011;6867;50.998;4.250;2023-09-12T13:21:19;10.88;;;6.68;;
13592;SDS011;6867;50.998;4.250;2023-09-12T13:23:46;8.95;;;6.50;;
13592;SDS011;6867;50.998;4.250;2023-09-12T13:26:13;9.43;;;6.43;;
13592;SDS011;6867;50.998;4.250;2023-09-12T13:28:39;9.05;;;6.82;;
13592;SDS011;6867;50.998;4.250;2023-09-12T13:31:06;10.27;;;6.95;;
13592;SDS011;6867;50.998;4.250;2023-09-12T13:33:33;12.93;;;7.35;;
13592;SDS011;6867;50.998;4.250;2023-09-12T13:36:00;8.57;;;6.82;;
13592;SDS011;6867;50.998;4.250;2023-09-12T13:38:28;9.20;;;6.32;;
13592;SDS011;6867;50.998;4.250;2023-09-12T13:40:54;6.70;;;5.82;;
13592;SDS011;6867;50.998;4.250;2023-09-12T13:43:21;9.93;;;6.57;;
13592;SDS011;6867;50.998;4.250;2023-09-12T13:45:48;8.45;;;5.88;;
13592;SDS011;6867;50.998;4.250;2023-09-12T13:48:15;9.60;;;6.68;;
13592;SDS011;6867;50.998;4.250;2023-09-12T13:50:41;7.97;;;6.03;;
13592;SDS011;6867;50.998;4.250;2023-09-12T13:53:09;8.15;;;5.55;;
13592;SDS011;6867;50.998;4.250;2023-09-12T13:55:37;6.80;;;5.22;;
13592;SDS011;6867;50.998;4.250;2023-09-12T13:58:04;8.20;;;5.85;;
13592;SDS011;6867;50.998;4.250;2023-09-12T14:00:31;6.05;;;4.57;;
13592;SDS011;6867;50.998;4.250;2023-09-12T14:02:59;6.95;;;5.13;;
13592;SDS011;6867;50.998;4.250;2023-09-12T14:05:26;7.90;;;4.88;;
13592;SDS011;6867;50.998;4.250;2023-09-12T14:07:52;5.93;;;4.35;;
13592;SDS011;6867;50.998;4.250;2023-09-12T14:10:19;6.55;;;5.00;;
13592;SDS011;6867;50.998;4.250;2023-09-12T14:12:47;6.47;;;5.05;;
13592;SDS011;6867;50.998;4.250;2023-09-12T14:15:14;6.80;;;5.18;;
13592;SDS011;6867;50.998;4.250;2023-09-12T14:17:41;8.00;;;4.93;;
13592;SDS011;6867;50.998;4.250;2023-09-12T14:20:08;7.80;;;5.15;;
13592;SDS011;6867;50.998;4.250;2023-09-12T14:22:36;6.85;;;5.07;;
13592;SDS011;6867;50.998;4.250;2023-09-12T14:25:03;9.63;;;6.22;;
13592;SDS011;6867;50.998;4.250;2023-09-12T14:27:30;9.57;;;6.72;;
13592;SDS011;6867;50.998;4.250;2023-09-12T14:29:58;8.05;;;5.85;;
13592;SDS011;6867;50.998;4.250;2023-09-12T14:32:25;8.52;;;5.80;;
13592;SDS011;6867;50.998;4.250;2023-09-12T14:34:51;7.35;;;5.93;;
13592;SDS011;6867;50.998;4.250;2023-09-12T14:37:18;8.40;;;7.07;;
13592;SDS011;6867;50.998;4.250;2023-09-12T14:39:45;12.40;;;7.95;;
13592;SDS011;6867;50.998;4.250;2023-09-12T14:42:11;11.25;;;7.07;;
13592;SDS011;6867;50.998;4.250;2023-09-12T14:44:38;11.98;;;7.10;;
13592;SDS011;6867;50.998;4.250;2023-09-12T14:47:06;12.48;;;8.05;;
13592;SDS011;6867;50.998;4.250;2023-09-12T14:49:33;8.43;;;7.10;;